Time;durP1;ratioP1;P1;durP2;ratioP2;P2;SDS_P1;SDS_P2;PMS_P1;PMS_P2;Temp;Humidity;BMP_temperature;BMP_pressure;BME280_temperature;BME280_humidity;BME280_pressure;Samples;Min_cycle;Max_cycle;Signal;HPM_P1;HPM_P2
2023/05/14 00:02:51;;;;;;;18.05;11.98;;;;;;;26.41;47.52;101553.31;20948795;28;20395;-72
2023/05/14 00:12:53;;;;;;;19.70;12.07;;;;;;;26.19;47.38;101531.47;20940635;28;20041;-74
2023/05/14 00:22:54;;;;;;;15.13;11.52;;;;;;;26.38;47.36;101578.34;20929135;28;20064;-73
2023/05/14 00:32:58;;;;;;;14.75;11.57;;;;;;;26.33;47.28;101576.44;20976568;28;20066;-71
2023/05/14 00:42:59;;;;;;;15.45;10.80;;;;;;;26.09;47.26;101548.47;20955628;28;20091;-72
2023/05/14 00:53:01;;;;;;;18.42;11.85;;;;;;;26.34;47.20;101595.81;20944842;28;20122;-73
2023/05/14 01:03:04;;;;;;;15.40;11.05;;;;;;;26.36;47.10;101615.13;20965464;28;20078;-71
2023/05/14 01:13:22;;;;;;;15.63;11.18;;;;;;;26.36;46.65;101641.22;20963299;28;20047;-74
2023/05/14 01:23:23;;;;;;;16.27;11.30;;;;;;;26.31;46.84;101651.69;20941285;28;20049;-73
2023/05/14 01:33:28;;;;;;;13.73;11.45;;;;;;;26.27;46.86;101665.47;20957230;28;20486;-73
2023/05/14 01:43:31;;;;;;;14.57;12.05;;;;;;;26.17;47.23;101668.41;20979346;28;20052;-76
2023/05/14 01:53:35;;;;;;;14.52;11.90;;;;;;;26.26;47.10;101705.88;20952909;28;20053;-72
2023/05/14 02:03:36;;;;;;;13.10;10.88;;;;;;;26.22;46.94;101695.56;20956610;28;20044;-71
2023/05/14 02:13:40;;;;;;;20.30;14.40;;;;;;;26.00;47.14;101640.00;20968333;28;20041;-74
2023/05/14 02:23:41;;;;;;;16.35;11.85;;;;;;;26.21;46.72;101697.53;20943707;28;20036;-72
2023/05/14 02:33:46;;;;;;;15.30;11.00;;;;;;;26.22;46.60;101710.41;20976836;28;20032;-72
2023/05/14 02:43:47;;;;;;;18.20;11.07;;;;;;;26.23;46.71;101717.69;20958574;28;20094;-73
2023/05/14 02:53:51;;;;;;;13.13;9.48;;;;;;;25.95;45.83;101676.53;20966016;28;20052;-73
2023/05/14 03:03:56;;;;;;;13.88;9.40;;;;;;;26.04;45.03;101730.81;20938824;28;20032;-72
2023/05/14 03:14:03;;;;;;;13.00;8.90;;;;;;;25.96;44.11;101742.69;20942909;28;20048;-76
2023/05/14 03:24:13;;;;;;;16.70;8.50;;;;;;;25.80;43.22;101742.84;20942409;28;20052;-77
2023/05/14 03:34:15;;;;;;;12.48;7.45;;;;;;;25.04;42.96;101628.56;21044738;28;20484;-75
2023/05/14 03:44:16;;;;;;;12.15;8.57;;;;;;;25.84;42.66;101771.97;21046031;28;20040;-76
2023/05/14 03:54:20;;;;;;;14.82;7.75;;;;;;;25.75;42.86;101762.50;21037041;28;20094;-76
2023/05/14 04:04:21;;;;;;;10.23;7.97;;;;;;;25.59;42.51;101749.72;20997979;28;20048;-77
2023/05/14 04:14:23;;;;;;;10.80;7.75;;;;;;;25.66;41.55;101769.88;20960446;28;20561;-77
2023/05/14 04:24:25;;;;;;;7.75;6.53;;;;;;;25.50;39.91;101765.50;21001438;28;20040;-78
2023/05/14 04:34:26;;;;;;;12.68;6.93;;;;;;;25.42;40.30;101777.31;20974300;28;20044;-77
2023/05/14 04:44:30;;;;;;;10.57;6.80;;;;;;;25.38;39.72;101785.47;20959250;28;20442;-77
2023/05/14 04:54:31;;;;;;;8.50;5.60;;;;;;;25.19;38.06;101776.91;20944580;28;20016;-77
2023/05/14 05:04:33;;;;;;;8.23;5.75;;;;;;;25.19;37.74;101782.53;20976324;28;20045;-77
2023/05/14 05:14:34;;;;;;;9.18;5.72;;;;;;;24.87;37.80;101751.31;20992597;28;20093;-77
2023/05/14 05:24:35;;;;;;;8.30;5.38;;;;;;;25.03;36.78;101780.94;21008381;28;20086;-77
2023/05/14 05:34:37;;;;;;;7.15;5.55;;;;;;;25.01;36.59;101789.59;20950999;28;20048;-77
2023/05/14 05:44:38;;;;;;;6.10;4.68;;;;;;;25.01;36.24;101791.56;20947577;28;20087;-77
2023/05/14 05:54:42;;;;;;;5.82;4.47;;;;;;;24.88;35.15;101793.06;20926649;28;20064;-76
2023/05/14 06:04:44;;;;;;;5.88;4.57;;;;;;;24.79;35.05;101798.41;20972445;28;20102;-77
2023/05/14 06:14:47;;;;;;;5.72;4.38;;;;;;;24.53;34.89;101752.06;21009036;28;20053;-76
2023/05/14 06:24:49;;;;;;;4.82;4.00;;;;;;;24.69;34.25;101795.63;20941388;28;20044;-76
2023/05/14 06:34:50;;;;;;;5.65;4.55;;;;;;;24.68;33.56;101813.56;21007886;28;20392;-77
2023/05/14 06:44:54;;;;;;;5.15;4.20;;;;;;;24.67;33.25;101814.69;20994109;28;20047;-77
2023/05/14 06:54:59;;;;;;;7.22;4.20;;;;;;;24.59;33.57;101812.47;20938863;28;20041;-78
2023/05/14 07:05:00;;;;;;;5.35;4.13;;;;;;;24.50;33.17;101825.38;20932748;28;20063;-77
2023/05/14 07:15:02;;;;;;;4.85;3.35;;;;;;;24.45;32.86;101844.97;20926580;28;20041;-77
2023/05/14 07:25:03;;;;;;;4.40;3.83;;;;;;;24.42;32.73;101851.97;20940060;28;20495;-77
2023/05/14 07:35:05;;;;;;;4.93;4.05;;;;;;;24.44;32.88;101849.72;20997035;28;20110;-78
2023/05/14 07:45:10;;;;;;;7.32;4.45;;;;;;;24.33;32.64;101860.06;20996461;28;20093;-76
2023/05/14 07:55:14;;;;;;;5.60;3.83;;;;;;;24.08;32.61;101823.75;20995836;28;20049;-76
2023/05/14 08:05:16;;;;;;;5.18;3.60;;;;;;;24.32;32.42;101857.53;20995168;28;20048;-76
2023/05/14 08:15:17;;;;;;;4.28;3.83;;;;;;;23.97;31.78;101830.47;20995425;28;20479;-76
2023/05/14 08:25:18;;;;;;;5.00;3.92;;;;;;;24.15;31.76;101879.41;20928030;28;20053;-78
2023/05/14 08:35:20;;;;;;;5.03;4.20;;;;;;;24.15;32.46;101887.78;20913385;28;20037;-77
2023/05/14 08:45:28;;;;;;;4.97;4.40;;;;;;;24.12;32.59;101891.97;20923670;28;20060;-77
2023/05/14 08:55:31;;;;;;;;;;;;;;;24.17;32.58;101899.53;20942741;28;20480;-76
2023/05/14 09:05:33;;;;;;;9.57;4.28;;;;;;;24.22;32.82;101919.94;20927422;28;19936;-77
2023/05/14 09:15:36;;;;;;;6.18;3.70;;;;;;;24.17;32.20;101936.72;20940410;28;20075;-76
2023/05/14 09:25:37;;;;;;;4.93;3.83;;;;;;;24.18;32.68;101955.16;20981838;28;20094;-77
2023/05/14 09:35:40;;;;;;;5.20;4.20;;;;;;;24.15;32.23;101991.25;20951227;28;20094;-77
2023/05/14 09:45:41;;;;;;;7.05;4.82;;;;;;;24.08;32.46;102005.50;20970515;28;20052;-77
2023/05/14 09:55:44;;;;;;;5.65;4.40;;;;;;;24.04;31.47;102035.13;21005307;28;20427;-77
2023/05/14 10:05:47;;;;;;;5.72;4.70;;;;;;;24.01;31.79;102027.31;20963115;28;20385;-76
2023/05/14 10:16:04;;;;;;;5.47;4.38;;;;;;;23.80;31.66;102018.00;20948735;28;20063;-77
2023/05/14 10:26:07;;;;;;;5.95;4.68;;;;;;;23.95;31.36;102059.97;20964274;28;20055;-76
2023/05/14 10:36:09;;;;;;;5.03;4.40;;;;;;;23.77;31.10;102049.28;20986715;28;20052;-77
2023/05/14 10:46:13;;;;;;;10.00;4.70;;;;;;;23.81;31.08;102076.41;20936490;28;20504;-78
2023/05/14 10:56:14;;;;;;;5.88;4.78;;;;;;;23.67;31.35;102066.88;20959543;28;20169;-76
2023/05/14 11:06:15;;;;;;;8.70;4.95;;;;;;;23.79;30.75;102126.19;20951706;28;20102;-76
2023/05/14 11:16:18;;;;;;;6.43;4.47;;;;;;;23.82;31.15;102150.81;20956212;28;20095;-77
2023/05/14 11:26:21;;;;;;;7.05;4.32;;;;;;;23.79;30.85;102151.34;20962111;28;20029;-77
2023/05/14 11:36:22;;;;;;;6.32;4.78;;;;;;;23.74;30.80;102154.09;20969147;28;20105;-75
2023/05/14 11:46:25;;;;;;;8.45;4.43;;;;;;;23.71;30.32;102151.84;21005832;28;20045;-75
2023/05/14 11:56:29;;;;;;;9.73;4.88;;;;;;;23.64;30.16;102141.97;20959136;28;20031;-75
2023/05/14 12:06:31;;;;;;;6.90;4.93;;;;;;;23.63;30.68;102140.31;20955192;28;20480;-74
2023/05/14 12:16:32;;;;;;;5.40;4.38;;;;;;;23.41;30.53;102123.69;20909272;28;20036;-76
2023/05/14 12:26:34;;;;;;;5.85;4.78;;;;;;;23.22;30.75;102118.53;20933387;28;20542;-75
2023/05/14 12:36:35;;;;;;;9.35;4.63;;;;;;;23.42;31.47;102147.72;20942308;28;20044;-76
2023/05/14 12:46:37;;;;;;;6.45;5.00;;;;;;;23.28;30.58;102167.75;20950880;28;20067;-75
2023/05/14 12:56:38;;;;;;;19.58;5.57;;;;;;;23.41;31.18;102166.41;20946553;28;20693;-76
2023/05/14 13:06:42;;;;;;;6.57;4.53;;;;;;;23.44;31.63;102170.63;20965782;28;20045;-76
2023/05/14 13:16:44;;;;;;;8.15;5.65;;;;;;;23.55;30.81;102189.16;20966742;28;20033;-75
2023/05/14 13:26:45;;;;;;;8.27;6.15;;;;;;;23.56;30.98;102194.47;20957457;28;20045;-77
2023/05/14 13:36:48;;;;;;;7.90;5.35;;;;;;;23.32;31.35;102152.13;20947581;28;20044;-76
2023/05/14 13:46:50;;;;;;;8.02;5.38;;;;;;;23.74;31.37;102193.22;20937142;28;20044;-78
2023/05/14 13:56:51;;;;;;;9.82;6.10;;;;;;;23.78;31.38;102205.56;20961318;28;20102;-77
2023/05/14 14:06:53;;;;;;;12.25;5.80;;;;;;;23.38;31.46;102130.66;20988994;28;20036;-76
2023/05/14 14:16:54;;;;;;;8.38;5.70;;;;;;;23.84;31.75;102182.09;20996332;28;20464;-75
2023/05/14 14:26:57;;;;;;;11.52;5.57;;;;;;;23.93;31.16;102167.63;20980891;28;20032;-81
2023/05/14 14:36:59;;;;;;;8.07;5.43;;;;;;;24.08;31.37;102178.88;20996978;28;20102;-78
2023/05/14 14:47:00;;;;;;;9.30;5.65;;;;;;;24.04;31.26;102164.59;20920308;28;20574;-79
2023/05/14 14:57:02;;;;;;;6.57;5.20;;;;;;;23.96;31.03;102153.06;20915256;28;20071;-81
2023/05/14 15:07:04;;;;;;;13.10;5.90;;;;;;;24.15;31.44;102171.06;20915544;28;20041;-68
2023/05/14 15:17:06;;;;;;;6.82;5.47;;;;;;;24.31;30.65;102142.03;20940466;28;20391;-73
2023/05/14 15:27:10;;;;;;;7.55;5.72;;;;;;;24.41;30.41;102143.19;20977721;28;20052;-72
2023/05/14 15:37:11;;;;;;;8.70;5.82;;;;;;;24.40;28.96;102150.75;20913193;28;20107;-73
2023/05/14 15:47:12;;;;;;;6.20;5.45;;;;;;;24.40;28.51;102147.97;20911787;28;20040;-73
2023/05/14 15:57:14;;;;;;;7.65;5.40;;;;;;;24.42;28.46;102128.09;20912035;28;20040;-73
2023/05/14 16:07:15;;;;;;;8.30;5.20;;;;;;;24.46;28.46;102127.25;20983524;28;20036;-72
2023/05/14 16:17:17;;;;;;;9.13;5.30;;;;;;;24.19;27.55;102071.53;20980022;28;20029;-70
2023/05/14 16:27:18;;;;;;;9.65;5.20;;;;;;;24.45;27.61;102105.16;20940243;28;20037;-72
2023/05/14 16:37:19;;;;;;;7.35;4.97;;;;;;;24.28;28.03;102053.09;20938509;28;20029;-74
2023/05/14 16:47:21;;;;;;;6.40;4.72;;;;;;;24.45;27.17;102083.63;20938797;28;20094;-70
2023/05/14 16:57:24;;;;;;;8.25;5.30;;;;;;;24.49;27.50;102064.31;20935828;28;20438;-71
2023/05/14 17:07:30;;;;;;;7.20;5.78;;;;;;;24.60;27.80;102066.00;20960849;28;20560;-71
2023/05/14 17:17:32;;;;;;;9.57;5.45;;;;;;;24.60;27.48;102043.59;20949868;28;20103;-70
2023/05/14 17:27:35;;;;;;;7.63;5.70;;;;;;;24.65;26.24;102046.44;20964732;28;20487;-71
2023/05/14 17:37:36;;;;;;;12.15;7.07;;;;;;;24.45;26.57;102004.44;20936524;28;20492;-71
2023/05/14 17:47:37;;;;;;;9.20;5.72;;;;;;;24.63;26.73;102017.88;20959220;28;20048;-71
2023/05/14 17:57:40;;;;;;;9.65;6.20;;;;;;;24.67;27.31;102004.16;20949674;28;20028;-70
2023/05/14 18:07:42;;;;;;;8.43;6.55;;;;;;;24.79;27.68;102002.75;20963291;28;20033;-69
2023/05/14 18:17:43;;;;;;;10.13;6.35;;;;;;;24.76;26.70;102003.31;20932873;28;20466;-72
2023/05/14 18:27:45;;;;;;;10.48;6.18;;;;;;;24.90;27.37;102003.56;20945780;28;20032;-70
2023/05/14 18:37:50;;;;;;;8.35;5.63;;;;;;;24.17;26.47;101869.59;20951733;28;20037;-69
2023/05/14 18:47:57;;;;;;;8.50;5.68;;;;;;;24.93;26.78;101975.03;20947825;28;20037;-70
2023/05/14 18:57:59;;;;;;;9.35;5.82;;;;;;;25.05;26.82;101972.72;20934041;28;21613;-70
2023/05/14 19:08:00;;;;;;;8.02;5.32;;;;;;;24.93;26.34;101937.78;20953840;28;20129;-68
2023/05/14 19:18:05;;;;;;;6.82;5.80;;;;;;;24.91;26.85;101903.63;20960470;28;20040;-69
2023/05/14 19:28:06;;;;;;;8.65;5.70;;;;;;;25.19;26.49;101938.53;20969415;28;20476;-69
2023/05/14 19:38:10;;;;;;;7.43;4.72;;;;;;;25.13;24.00;101948.94;20944000;28;20045;-71
2023/05/14 19:48:12;;;;;;;9.73;5.80;;;;;;;25.19;26.75;101928.19;20954357;28;20089;-68
2023/05/14 19:58:13;;;;;;;11.95;5.30;;;;;;;24.99;25.53;101895.47;20924981;28;20037;-70
2023/05/14 20:08:15;;;;;;;8.73;4.90;;;;;;;25.05;25.58;101907.47;20989401;28;20065;-69
2023/05/14 20:18:16;;;;;;;6.57;4.63;;;;;;;25.27;26.30;101947.19;21005561;28;20052;-71
2023/05/14 20:28:18;;;;;;;8.23;5.38;;;;;;;25.25;25.83;101955.06;21003420;28;20093;-70
2023/05/14 20:38:20;;;;;;;5.93;4.72;;;;;;;25.31;25.90;101969.88;20962901;28;20492;-70
2023/05/14 20:48:21;;;;;;;5.97;4.82;;;;;;;25.19;26.20;101956.19;20989826;28;20048;-70
2023/05/14 20:58:23;;;;;;;6.57;4.90;;;;;;;25.30;25.46;101974.66;20958893;28;20103;-70
2023/05/14 21:08:24;;;;;;;7.03;5.22;;;;;;;25.22;25.52;101955.63;20977130;28;20491;-69
2023/05/14 21:18:29;;;;;;;6.88;4.80;;;;;;;25.30;25.99;101974.66;21006225;28;20036;-70
2023/05/14 21:28:30;;;;;;;7.32;4.45;;;;;;;25.21;25.75;101967.97;20927636;28;20041;-70
2023/05/14 21:38:32;;;;;;;4.93;4.43;;;;;;;25.31;25.57;101981.91;20939378;28;20041;-70
2023/05/14 21:48:34;;;;;;;6.03;4.93;;;;;;;25.29;26.19;101975.78;20983105;28;20045;-70
2023/05/14 21:58:35;;;;;;;4.25;3.67;;;;;;;25.27;23.65;101989.22;20942701;28;20024;-71
2023/05/14 22:08:36;;;;;;;4.95;3.83;;;;;;;25.11;22.28;101987.59;20919935;28;20044;-71
2023/05/14 22:18:38;;;;;;;7.47;4.00;;;;;;;25.13;23.36;102010.56;20932777;28;20052;-70
2023/05/14 22:28:41;;;;;;;5.68;4.32;;;;;;;24.87;23.87;101976.13;20959865;28;20068;-70
2023/05/14 22:38:43;;;;;;;6.63;4.00;;;;;;;25.07;23.61;102015.34;20930248;28;20404;-70
2023/05/14 22:48:44;;;;;;;7.00;4.25;;;;;;;24.79;22.42;101985.13;20914153;28;20045;-72
2023/05/14 22:58:45;;;;;;;6.13;4.05;;;;;;;24.91;21.89;102015.59;20949803;28;20032;-70
2023/05/14 23:08:47;;;;;;;5.45;3.85;;;;;;;24.87;21.70;102020.09;21011325;28;20048;-70
2023/05/14 23:18:48;;;;;;;4.07;3.67;;;;;;;24.75;21.42;102017.59;20936056;28;1694892;-70
2023/05/14 23:28:50;;;;;;;5.75;3.75;;;;;;;24.81;21.25;102044.47;20990548;28;20411;-71
2023/05/14 23:38:51;;;;;;;5.03;3.60;;;;;;;24.79;22.09;102053.16;20982540;28;20036;-71
2023/05/14 23:48:55;;;;;;;6.00;3.75;;;;;;;24.54;22.68;102022.34;20988731;28;20051;-70
2023/05/14 23:58:57;;;;;;;7.70;3.42;;;;;;;24.69;22.60;102064.31;20994580;28;20052;-72
